Nellis AFB, Nevada
Current Conditions -  °F | °C
As of 5:58 AM on Tuesday 21 Oct 2014 (Local Time) from KLSV Reporting Station
Clear Clear  
Wind Chill: 72°   Ceiling: Unl
Heat Index: 72°   Visibility: 10mi
Dew Point: 41°   Wind: 7mph
Humidity: 33%   Direction: 210°SSW
Pressure: 29.85"   Gusts: NA
Location:  36.24°N, 115.03°W
Report Text: KLSV 211258Z AUTO 21006KT 10SM CLR 22/05 A2985 RMK AO2 SLPNO T02200048 $
Loading
Personal Weather Stations






























Interactive Weather Map
Tropical Storm Tracking
New forecast layout! Learn more

10-Day Weather Forecast

Advertisements
Track Severe Weather on mobile